< Typhoon 198421 1984 Season Typhoon 198423 >
Typhoon 198422 (VANESSA)
General InformationTrack Information on Google MapsDetailed Wind InformationList of All Images || Disaster Info.ResourceGoogle EarthGE AnimationAtom FeedGeoJSON
Detalied Best Track (Time Zone = UTC)
Year Month Day Hour Lat. Long. Pressure (hPa) Wind (kt) Class Image Chart
1984 10 22 12 8.5 156.0 1004 0 2 Image Chart
1984 10 22 18 9.0 155.0 1002 0 2 Image Chart
1984 10 23 00 9.5 153.6 1002 0 2 Image Chart
1984 10 23 06 9.7 152.2 996 35 3 Image Chart
1984 10 23 12 10.0 150.6 992 45 3 Image Chart
1984 10 23 18 10.4 149.2 990 45 3 Image Chart
1984 10 24 00 10.7 147.5 985 50 4 Image Chart
1984 10 24 06 11.2 145.8 985 60 4 Image Chart
1984 10 24 12 12.0 144.3 975 70 5 Image Chart
1984 10 24 18 12.3 142.2 970 80 5 Image Chart
1984 10 25 00 12.7 140.6 965 80 5 Image Chart
1984 10 25 06 13.3 138.8 935 100 5 Image Chart
1984 10 25 12 14.0 137.2 910 120 5 Image Chart
1984 10 25 18 14.8 135.5 900 120 5 Image Chart
1984 10 26 00 15.5 134.1 890 120 5 Image Chart
1984 10 26 06 15.9 132.7 890 120 5 Image Chart
1984 10 26 12 15.9 131.6 880 120 5 Image Chart
1984 10 26 18 16.3 131.1 880 120 5 Image Chart
1984 10 27 00 17.2 130.3 895 120 5 Image Chart
1984 10 27 06 18.0 129.8 895 120 5 Image Chart
1984 10 27 12 18.7 129.3 905 110 5 Image Chart
1984 10 27 18 19.7 129.1 910 110 5 Image Chart
1984 10 28 00 20.5 129.4 910 110 5 Image Chart
1984 10 28 06 21.4 130.3 920 110 5 Image Chart
1984 10 28 12 22.4 131.2 930 100 5 Image Chart
1984 10 28 18 23.1 132.6 920 100 5 Image Chart
1984 10 29 00 23.6 134.2 925 100 5 Image Chart
1984 10 29 06 24.1 136.1 925 100 5 Image Chart
1984 10 29 12 25.2 138.0 935 100 5 Image Chart
1984 10 29 18 26.4 140.0 940 90 5 Image Chart
1984 10 30 00 28.3 142.9 960 80 5 Image Chart
1984 10 30 06 30.9 146.8 965 75 5 Image Chart
1984 10 30 12 32.5 151.0 975 70 5 Image Chart
1984 10 30 18 36.0 156.0 975 0 6 Image Chart
1984 10 31 00 40.0 162.0 966 0 6 Image Chart
1984 10 31 06 44.0 169.0 968 0 6 Image Chart
1984 10 31 12 45.0 175.0 972 0 6 Image Chart
1984 10 31 18 46.0 182.0 976 0 6 Image Chart
Japan Meteorological Agency Best Track Data | Correction Date : 1992-10-21
< Typhoon 198421 1984 Season Typhoon 198423 >

Help